Forside
METAR-TAF:

METAR-TAF

Lufthavne :

Princeton Municipal Airport

Princeton, Minnesota, USA

Breddekreds: 45-33N, længdekreds: 093-36W, højde: 298 m

Aktuelle vejr

Denne rapport blev lavet for 32 minutter siden, kl. 03:35 UTC
Vind 5 kt fra øst
Temperatur -6°C
Fugtighed 93%
Tryk 1015 hPa
Sigt: 6.4 km
Brudte skyer i en højde af 1100 ft
Overskyet i en højde af 1400 ft
ukendt

METAR: KPNM 180335Z AUTO 10005KT 4SM UP BKN011 OVC014 M06/M07 A2998 RMK AO2

Tid: 22:07 (04:07 UTC)


TAF: fraværende

Vejrobservationer og prognoser fra mere end 4000 lufthavne (METAR og TAF).

De gule og røde prikker repræsenterer de meteorologiske stationer.

Flyt musen over at se navnet på stationen.

Så klik over at se vejr observationer og prognoser.

At skifte det kort: Klik på de grønne knapper med et sort kors for at zoome ind; på den grønne knap med en bindestreg for at zoome ud; eller på de grønne pile for tilstødende kort.


METAR-TAF: